Weather at Fagernes Airport, Leirin

Public forecast

Using degrees Celsius for public forecast. Weather courtesy of forecast.io.

Closest aviation weather report (METAR) to Fagernes Airport, Leirin

Report is more than 6 hours old.

Closest report is Sogndal Airport, Hauk√•sen, 63.0 nm (116.7 km) W.

2022/11/14 15:20 (retrieved 2 years ago)

ENSG 141520Z 09005KT CAVOK 06/04 Q1018 RMK WIND 3806FT 10017KT

Closest aviation forecast (TAF) to Fagernes Airport, Leirin

Forecast is more than 12 hours old.

Closest forecast is Oslo Airport, Gardermoen, 72.7 nm (134.6 km) SE.

2023/02/22 18:36 (retrieved 1 year ago)

TAF ENGM 221700Z 2218/2318 17010KT 9000 -SN SCT012 BKN025 BECMG 2218/2220 4000 -SN SCT004 BKN012 TEMPO 2220/2305 1200 SN BR VV004 BECMG 2307/2309 01012KT 9999 NSW SCT030